In Rescue
 
Open Full Screen Window  High Contrast Mode
October 25, 2021 4:00 PM CDT
Weather Information
Wind Direction
  ---
Wind Speed
  00 kt (0 mph)
Wind Gust
  00 kt (0 mph)
Altimeter
30.17 in
Visibility
10 SM
Temperature
08° C
46° F
Dewpoint
-01° C
30° F
Humidity
53%
1hr Rain Fall
00.00 in.
24hr Rain Fall
00.00 in.
Sky Condition
Clear
VFR

METAR KCQM 252100Z AUTO 00000KT 10SM CLR 08/M01 A3017 RMK AO2

FAA Disclaimer: The data displayed is for advisory purposes only and is not to be used for flight planning or operations.